sensor_id;sensor_type;location;lat;lon;timestamp;P1;durP1;ratioP1;P2;durP2;ratioP2
2966;SDS011;1493;51.496;7.210;2022-08-05T00:00:30;3.60;;;2.20;;
2966;SDS011;1493;51.496;7.210;2022-08-05T00:02:57;5.33;;;2.30;;
2966;SDS011;1493;51.496;7.210;2022-08-05T00:05:24;4.70;;;2.30;;
2966;SDS011;1493;51.496;7.210;2022-08-05T00:07:51;4.00;;;2.57;;
2966;SDS011;1493;51.496;7.210;2022-08-05T00:10:18;5.27;;;2.07;;
2966;SDS011;1493;51.496;7.210;2022-08-05T00:12:47;4.00;;;2.40;;
2966;SDS011;1493;51.496;7.210;2022-08-05T00:15:13;3.00;;;1.90;;
2966;SDS011;1493;51.496;7.210;2022-08-05T00:17:50;3.90;;;2.67;;
2966;SDS011;1493;51.496;7.210;2022-08-05T00:20:17;4.07;;;2.13;;
2966;SDS011;1493;51.496;7.210;2022-08-05T00:22:44;2.77;;;1.70;;
2966;SDS011;1493;51.496;7.210;2022-08-05T00:25:11;3.23;;;1.93;;
2966;SDS011;1493;51.496;7.210;2022-08-05T00:27:38;3.87;;;2.43;;
2966;SDS011;1493;51.496;7.210;2022-08-05T00:30:05;4.03;;;2.20;;
2966;SDS011;1493;51.496;7.210;2022-08-05T00:32:33;3.63;;;2.27;;
2966;SDS011;1493;51.496;7.210;2022-08-05T00:35:02;4.87;;;1.70;;
2966;SDS011;1493;51.496;7.210;2022-08-05T00:37:29;4.83;;;2.40;;
2966;SDS011;1493;51.496;7.210;2022-08-05T00:39:56;3.23;;;2.10;;
2966;SDS011;1493;51.496;7.210;2022-08-05T00:42:29;2.90;;;2.00;;
2966;SDS011;1493;51.496;7.210;2022-08-05T00:44:56;4.83;;;2.07;;
2966;SDS011;1493;51.496;7.210;2022-08-05T00:47:23;2.90;;;2.13;;
2966;SDS011;1493;51.496;7.210;2022-08-05T00:49:50;3.50;;;1.90;;
2966;SDS011;1493;51.496;7.210;2022-08-05T00:52:19;4.20;;;2.23;;
2966;SDS011;1493;51.496;7.210;2022-08-05T00:54:46;3.40;;;2.43;;
2966;SDS011;1493;51.496;7.210;2022-08-05T00:57:13;3.87;;;2.30;;
2966;SDS011;1493;51.496;7.210;2022-08-05T00:59:40;4.77;;;2.30;;
2966;SDS011;1493;51.496;7.210;2022-08-05T01:02:07;5.67;;;2.60;;
2966;SDS011;1493;51.496;7.210;2022-08-05T01:04:34;4.70;;;3.10;;
2966;SDS011;1493;51.496;7.210;2022-08-05T01:07:01;5.20;;;2.60;;
2966;SDS011;1493;51.496;7.210;2022-08-05T01:09:29;8.13;;;3.00;;
2966;SDS011;1493;51.496;7.210;2022-08-05T01:11:57;3.93;;;2.60;;
2966;SDS011;1493;51.496;7.210;2022-08-05T01:14:30;5.93;;;2.47;;
2966;SDS011;1493;51.496;7.210;2022-08-05T01:17:02;6.47;;;2.57;;
2966;SDS011;1493;51.496;7.210;2022-08-05T01:19:33;3.67;;;2.20;;
2966;SDS011;1493;51.496;7.210;2022-08-05T01:22:16;3.43;;;2.20;;
2966;SDS011;1493;51.496;7.210;2022-08-05T01:24:57;2.97;;;1.73;;
2966;SDS011;1493;51.496;7.210;2022-08-05T01:27:43;3.30;;;2.30;;
2966;SDS011;1493;51.496;7.210;2022-08-05T01:30:17;4.33;;;2.20;;
2966;SDS011;1493;51.496;7.210;2022-08-05T01:32:45;6.00;;;2.80;;
2966;SDS011;1493;51.496;7.210;2022-08-05T01:35:15;4.17;;;2.37;;
2966;SDS011;1493;51.496;7.210;2022-08-05T01:37:45;4.33;;;1.97;;
2966;SDS011;1493;51.496;7.210;2022-08-05T01:40:15;4.43;;;2.70;;
2966;SDS011;1493;51.496;7.210;2022-08-05T01:42:45;2.70;;;2.10;;
2966;SDS011;1493;51.496;7.210;2022-08-05T01:45:14;4.30;;;2.90;;
2966;SDS011;1493;51.496;7.210;2022-08-05T01:47:41;5.30;;;2.60;;
2966;SDS011;1493;51.496;7.210;2022-08-05T01:50:10;5.27;;;2.33;;
2966;SDS011;1493;51.496;7.210;2022-08-05T01:52:40;4.90;;;3.10;;
2966;SDS011;1493;51.496;7.210;2022-08-05T01:55:09;5.60;;;2.13;;
2966;SDS011;1493;51.496;7.210;2022-08-05T01:57:39;4.90;;;2.23;;
2966;SDS011;1493;51.496;7.210;2022-08-05T02:00:11;5.10;;;2.13;;
2966;SDS011;1493;51.496;7.210;2022-08-05T02:02:40;3.10;;;2.00;;
2966;SDS011;1493;51.496;7.210;2022-08-05T02:05:13;4.13;;;2.60;;
2966;SDS011;1493;51.496;7.210;2022-08-05T02:07:42;5.50;;;1.90;;
2966;SDS011;1493;51.496;7.210;2022-08-05T02:10:09;3.17;;;2.23;;
2966;SDS011;1493;51.496;7.210;2022-08-05T02:12:37;4.57;;;2.30;;
2966;SDS011;1493;51.496;7.210;2022-08-05T02:15:14;3.53;;;2.10;;
2966;SDS011;1493;51.496;7.210;2022-08-05T02:17:48;4.90;;;2.57;;
2966;SDS011;1493;51.496;7.210;2022-08-05T02:20:18;4.37;;;2.60;;
2966;SDS011;1493;51.496;7.210;2022-08-05T02:22:49;4.30;;;2.30;;
2966;SDS011;1493;51.496;7.210;2022-08-05T02:25:23;7.10;;;2.30;;
2966;SDS011;1493;51.496;7.210;2022-08-05T02:27:53;4.10;;;2.00;;
2966;SDS011;1493;51.496;7.210;2022-08-05T02:30:22;3.57;;;2.07;;
2966;SDS011;1493;51.496;7.210;2022-08-05T02:32:51;3.70;;;2.30;;
2966;SDS011;1493;51.496;7.210;2022-08-05T02:35:21;5.33;;;3.03;;
2966;SDS011;1493;51.496;7.210;2022-08-05T02:37:51;4.00;;;2.57;;
2966;SDS011;1493;51.496;7.210;2022-08-05T02:40:20;3.87;;;2.30;;
2966;SDS011;1493;51.496;7.210;2022-08-05T02:42:49;4.30;;;2.90;;
2966;SDS011;1493;51.496;7.210;2022-08-05T02:45:18;4.73;;;2.90;;
2966;SDS011;1493;51.496;7.210;2022-08-05T02:47:48;8.40;;;2.73;;
2966;SDS011;1493;51.496;7.210;2022-08-05T02:50:16;3.40;;;2.40;;
2966;SDS011;1493;51.496;7.210;2022-08-05T02:52:44;7.83;;;3.10;;
2966;SDS011;1493;51.496;7.210;2022-08-05T02:55:12;4.80;;;2.60;;
2966;SDS011;1493;51.496;7.210;2022-08-05T02:57:39;4.07;;;3.37;;
2966;SDS011;1493;51.496;7.210;2022-08-05T03:00:08;5.27;;;3.17;;
2966;SDS011;1493;51.496;7.210;2022-08-05T03:02:38;5.43;;;3.50;;
2966;SDS011;1493;51.496;7.210;2022-08-05T03:05:09;4.90;;;3.00;;
2966;SDS011;1493;51.496;7.210;2022-08-05T03:07:37;4.20;;;3.13;;
2966;SDS011;1493;51.496;7.210;2022-08-05T03:10:06;4.67;;;3.20;;
2966;SDS011;1493;51.496;7.210;2022-08-05T03:12:35;5.13;;;3.33;;
2966;SDS011;1493;51.496;7.210;2022-08-05T03:15:03;3.90;;;3.00;;
2966;SDS011;1493;51.496;7.210;2022-08-05T03:17:32;5.73;;;4.03;;
2966;SDS011;1493;51.496;7.210;2022-08-05T03:19:58;6.37;;;3.37;;
2966;SDS011;1493;51.496;7.210;2022-08-05T03:22:27;5.03;;;3.70;;
2966;SDS011;1493;51.496;7.210;2022-08-05T03:24:54;6.33;;;4.00;;
2966;SDS011;1493;51.496;7.210;2022-08-05T03:27:22;4.23;;;3.83;;
2966;SDS011;1493;51.496;7.210;2022-08-05T03:29:52;11.57;;;3.83;;
2966;SDS011;1493;51.496;7.210;2022-08-05T03:32:19;6.33;;;4.30;;
2966;SDS011;1493;51.496;7.210;2022-08-05T03:34:47;6.60;;;3.97;;
2966;SDS011;1493;51.496;7.210;2022-08-05T03:37:14;4.90;;;3.70;;
2966;SDS011;1493;51.496;7.210;2022-08-05T03:39:52;5.23;;;3.33;;
2966;SDS011;1493;51.496;7.210;2022-08-05T03:42:21;6.97;;;3.83;;
2966;SDS011;1493;51.496;7.210;2022-08-05T03:44:47;7.10;;;1.23;;
2966;SDS011;1493;51.496;7.210;2022-08-05T03:47:14;4.43;;;2.93;;
2966;SDS011;1493;51.496;7.210;2022-08-05T03:49:41;7.80;;;3.03;;
2966;SDS011;1493;51.496;7.210;2022-08-05T03:52:09;6.03;;;3.30;;
2966;SDS011;1493;51.496;7.210;2022-08-05T03:54:39;7.33;;;3.87;;
2966;SDS011;1493;51.496;7.210;2022-08-05T03:57:13;6.23;;;4.40;;
2966;SDS011;1493;51.496;7.210;2022-08-05T03:59:45;8.27;;;4.10;;
2966;SDS011;1493;51.496;7.210;2022-08-05T04:02:22;7.23;;;4.87;;
2966;SDS011;1493;51.496;7.210;2022-08-05T04:04:51;7.33;;;4.63;;
2966;SDS011;1493;51.496;7.210;2022-08-05T04:07:19;8.30;;;4.77;;
2966;SDS011;1493;51.496;7.210;2022-08-05T04:09:46;9.03;;;4.10;;
2966;SDS011;1493;51.496;7.210;2022-08-05T04:12:15;5.53;;;5.03;;
2966;SDS011;1493;51.496;7.210;2022-08-05T04:14:42;7.30;;;5.37;;
2966;SDS011;1493;51.496;7.210;2022-08-05T04:17:09;6.40;;;4.67;;
2966;SDS011;1493;51.496;7.210;2022-08-05T04:19:40;6.53;;;4.93;;
2966;SDS011;1493;51.496;7.210;2022-08-05T04:22:07;9.73;;;5.03;;
2966;SDS011;1493;51.496;7.210;2022-08-05T04:24:34;8.43;;;5.50;;
2966;SDS011;1493;51.496;7.210;2022-08-05T04:27:01;8.03;;;5.37;;
2966;SDS011;1493;51.496;7.210;2022-08-05T04:29:29;7.93;;;5.13;;
2966;SDS011;1493;51.496;7.210;2022-08-05T04:31:56;8.23;;;4.87;;
2966;SDS011;1493;51.496;7.210;2022-08-05T04:34:23;8.30;;;5.60;;
2966;SDS011;1493;51.496;7.210;2022-08-05T04:36:50;8.83;;;5.07;;
2966;SDS011;1493;51.496;7.210;2022-08-05T04:39:17;6.57;;;5.73;;
2966;SDS011;1493;51.496;7.210;2022-08-05T04:41:44;8.80;;;5.53;;
2966;SDS011;1493;51.496;7.210;2022-08-05T04:44:11;7.00;;;5.90;;
2966;SDS011;1493;51.496;7.210;2022-08-05T04:46:40;9.00;;;6.03;;
2966;SDS011;1493;51.496;7.210;2022-08-05T04:49:07;6.20;;;5.10;;
2966;SDS011;1493;51.496;7.210;2022-08-05T04:51:34;9.63;;;5.87;;
2966;SDS011;1493;51.496;7.210;2022-08-05T04:54:00;8.60;;;7.47;;
2966;SDS011;1493;51.496;7.210;2022-08-05T04:56:27;9.40;;;7.53;;
2966;SDS011;1493;51.496;7.210;2022-08-05T04:58:54;9.27;;;6.70;;
2966;SDS011;1493;51.496;7.210;2022-08-05T05:01:21;13.10;;;10.57;;
2966;SDS011;1493;51.496;7.210;2022-08-05T05:03:50;10.20;;;7.27;;
2966;SDS011;1493;51.496;7.210;2022-08-05T05:06:16;11.37;;;7.00;;
2966;SDS011;1493;51.496;7.210;2022-08-05T05:08:44;11.23;;;7.83;;
2966;SDS011;1493;51.496;7.210;2022-08-05T05:11:11;10.53;;;8.30;;
2966;SDS011;1493;51.496;7.210;2022-08-05T05:13:38;11.10;;;7.63;;
2966;SDS011;1493;51.496;7.210;2022-08-05T05:16:05;9.47;;;8.50;;
2966;SDS011;1493;51.496;7.210;2022-08-05T05:18:32;13.03;;;9.20;;
2966;SDS011;1493;51.496;7.210;2022-08-05T05:21:00;11.93;;;9.60;;
2966;SDS011;1493;51.496;7.210;2022-08-05T05:23:28;12.40;;;8.87;;
2966;SDS011;1493;51.496;7.210;2022-08-05T05:25:55;11.77;;;9.93;;
2966;SDS011;1493;51.496;7.210;2022-08-05T05:28:21;11.70;;;9.10;;
2966;SDS011;1493;51.496;7.210;2022-08-05T05:30:48;10.60;;;9.23;;
2966;SDS011;1493;51.496;7.210;2022-08-05T05:33:15;17.27;;;14.13;;
2966;SDS011;1493;51.496;7.210;2022-08-05T05:35:42;9.90;;;8.37;;
2966;SDS011;1493;51.496;7.210;2022-08-05T05:38:12;14.17;;;9.03;;
2966;SDS011;1493;51.496;7.210;2022-08-05T05:40:39;12.50;;;10.90;;
2966;SDS011;1493;51.496;7.210;2022-08-05T05:43:06;14.90;;;11.40;;
2966;SDS011;1493;51.496;7.210;2022-08-05T05:45:33;16.13;;;12.40;;
2966;SDS011;1493;51.496;7.210;2022-08-05T05:48:00;14.03;;;12.53;;
2966;SDS011;1493;51.496;7.210;2022-08-05T05:50:30;13.63;;;10.80;;
2966;SDS011;1493;51.496;7.210;2022-08-05T05:52:57;11.37;;;9.60;;
2966;SDS011;1493;51.496;7.210;2022-08-05T05:55:25;14.57;;;12.30;;
2966;SDS011;1493;51.496;7.210;2022-08-05T05:57:52;16.77;;;12.27;;
2966;SDS011;1493;51.496;7.210;2022-08-05T06:00:19;15.70;;;11.13;;
2966;SDS011;1493;51.496;7.210;2022-08-05T06:02:47;15.07;;;12.03;;
2966;SDS011;1493;51.496;7.210;2022-08-05T06:05:15;17.00;;;14.50;;
2966;SDS011;1493;51.496;7.210;2022-08-05T06:07:44;16.53;;;13.30;;
2966;SDS011;1493;51.496;7.210;2022-08-05T06:10:14;23.00;;;16.30;;
2966;SDS011;1493;51.496;7.210;2022-08-05T06:12:42;15.60;;;12.00;;
2966;SDS011;1493;51.496;7.210;2022-08-05T06:15:09;19.00;;;13.10;;
2966;SDS011;1493;51.496;7.210;2022-08-05T06:17:36;18.90;;;15.40;;
2966;SDS011;1493;51.496;7.210;2022-08-05T06:20:04;17.97;;;14.73;;
2966;SDS011;1493;51.496;7.210;2022-08-05T06:22:32;17.17;;;13.00;;
2966;SDS011;1493;51.496;7.210;2022-08-05T06:25:01;17.40;;;13.27;;
2966;SDS011;1493;51.496;7.210;2022-08-05T06:27:32;17.70;;;14.57;;
2966;SDS011;1493;51.496;7.210;2022-08-05T06:30:00;18.87;;;14.13;;
2966;SDS011;1493;51.496;7.210;2022-08-05T06:32:27;22.90;;;14.67;;
2966;SDS011;1493;51.496;7.210;2022-08-05T06:34:56;15.20;;;12.40;;
2966;SDS011;1493;51.496;7.210;2022-08-05T06:37:24;17.20;;;13.70;;
2966;SDS011;1493;51.496;7.210;2022-08-05T06:39:51;15.40;;;12.30;;
2966;SDS011;1493;51.496;7.210;2022-08-05T06:42:18;13.07;;;11.53;;
2966;SDS011;1493;51.496;7.210;2022-08-05T06:44:45;19.13;;;11.57;;
2966;SDS011;1493;51.496;7.210;2022-08-05T06:47:13;16.23;;;11.23;;
2966;SDS011;1493;51.496;7.210;2022-08-05T06:49:40;31.83;;;16.73;;
2966;SDS011;1493;51.496;7.210;2022-08-05T06:52:07;18.87;;;13.67;;
2966;SDS011;1493;51.496;7.210;2022-08-05T06:54:33;16.40;;;14.80;;
2966;SDS011;1493;51.496;7.210;2022-08-05T06:57:03;19.00;;;15.87;;
2966;SDS011;1493;51.496;7.210;2022-08-05T06:59:33;19.73;;;15.60;;
2966;SDS011;1493;51.496;7.210;2022-08-05T07:01:59;15.37;;;13.87;;
2966;SDS011;1493;51.496;7.210;2022-08-05T07:04:28;16.03;;;12.80;;
2966;SDS011;1493;51.496;7.210;2022-08-05T07:06:54;17.60;;;12.80;;
2966;SDS011;1493;51.496;7.210;2022-08-05T07:09:21;12.63;;;11.33;;
2966;SDS011;1493;51.496;7.210;2022-08-05T07:11:48;12.77;;;11.37;;
2966;SDS011;1493;51.496;7.210;2022-08-05T07:14:15;24.07;;;17.10;;
2966;SDS011;1493;51.496;7.210;2022-08-05T07:17:00;14.63;;;12.07;;
2966;SDS011;1493;51.496;7.210;2022-08-05T07:19:28;14.70;;;12.37;;
2966;SDS011;1493;51.496;7.210;2022-08-05T07:21:55;12.33;;;11.10;;
2966;SDS011;1493;51.496;7.210;2022-08-05T07:24:22;19.63;;;14.37;;
2966;SDS011;1493;51.496;7.210;2022-08-05T07:26:49;12.93;;;10.23;;
2966;SDS011;1493;51.496;7.210;2022-08-05T07:29:17;13.60;;;10.57;;
2966;SDS011;1493;51.496;7.210;2022-08-05T07:31:44;12.47;;;10.97;;
2966;SDS011;1493;51.496;7.210;2022-08-05T07:34:10;12.23;;;10.70;;
2966;SDS011;1493;51.496;7.210;2022-08-05T07:36:39;9.73;;;8.83;;
2966;SDS011;1493;51.496;7.210;2022-08-05T07:39:09;10.30;;;9.27;;
2966;SDS011;1493;51.496;7.210;2022-08-05T07:41:41;13.33;;;11.93;;
2966;SDS011;1493;51.496;7.210;2022-08-05T07:44:08;12.73;;;9.00;;
2966;SDS011;1493;51.496;7.210;2022-08-05T07:46:35;15.73;;;8.93;;
2966;SDS011;1493;51.496;7.210;2022-08-05T07:49:02;12.53;;;11.33;;
2966;SDS011;1493;51.496;7.210;2022-08-05T07:51:29;8.57;;;7.30;;
2966;SDS011;1493;51.496;7.210;2022-08-05T07:54:04;9.83;;;8.83;;
2966;SDS011;1493;51.496;7.210;2022-08-05T07:56:31;12.73;;;8.60;;
2966;SDS011;1493;51.496;7.210;2022-08-05T07:58:58;8.73;;;7.03;;
2966;SDS011;1493;51.496;7.210;2022-08-05T08:01:25;7.90;;;5.80;;
2966;SDS011;1493;51.496;7.210;2022-08-05T08:03:54;11.73;;;7.20;;
2966;SDS011;1493;51.496;7.210;2022-08-05T08:06:21;9.40;;;6.77;;
2966;SDS011;1493;51.496;7.210;2022-08-05T08:08:48;11.57;;;6.80;;
2966;SDS011;1493;51.496;7.210;2022-08-05T08:11:16;11.50;;;7.47;;
2966;SDS011;1493;51.496;7.210;2022-08-05T08:13:43;10.00;;;9.00;;
2966;SDS011;1493;51.496;7.210;2022-08-05T08:16:10;9.33;;;6.60;;
2966;SDS011;1493;51.496;7.210;2022-08-05T08:18:37;6.70;;;6.10;;
2966;SDS011;1493;51.496;7.210;2022-08-05T08:21:07;7.53;;;5.63;;
2966;SDS011;1493;51.496;7.210;2022-08-05T08:23:34;6.40;;;3.53;;
2966;SDS011;1493;51.496;7.210;2022-08-05T08:26:01;6.77;;;3.10;;
2966;SDS011;1493;51.496;7.210;2022-08-05T08:28:29;7.83;;;4.03;;
2966;SDS011;1493;51.496;7.210;2022-08-05T08:30:56;5.40;;;3.60;;
2966;SDS011;1493;51.496;7.210;2022-08-05T08:33:23;6.97;;;4.50;;
2966;SDS011;1493;51.496;7.210;2022-08-05T08:35:50;4.40;;;3.30;;
2966;SDS011;1493;51.496;7.210;2022-08-05T08:38:16;4.97;;;3.20;;
2966;SDS011;1493;51.496;7.210;2022-08-05T08:40:43;6.17;;;3.30;;
2966;SDS011;1493;51.496;7.210;2022-08-05T08:43:12;4.90;;;4.30;;
2966;SDS011;1493;51.496;7.210;2022-08-05T08:45:41;5.67;;;2.90;;
2966;SDS011;1493;51.496;7.210;2022-08-05T08:48:10;7.27;;;2.87;;
2966;SDS011;1493;51.496;7.210;2022-08-05T08:50:38;5.27;;;2.97;;
2966;SDS011;1493;51.496;7.210;2022-08-05T08:53:06;4.67;;;3.17;;
2966;SDS011;1493;51.496;7.210;2022-08-05T08:55:36;6.50;;;3.00;;
2966;SDS011;1493;51.496;7.210;2022-08-05T08:58:04;4.53;;;2.80;;
2966;SDS011;1493;51.496;7.210;2022-08-05T09:00:31;5.10;;;3.10;;
2966;SDS011;1493;51.496;7.210;2022-08-05T09:03:00;7.00;;;2.93;;
2966;SDS011;1493;51.496;7.210;2022-08-05T09:05:30;7.90;;;3.10;;
2966;SDS011;1493;51.496;7.210;2022-08-05T09:07:57;6.73;;;2.87;;
2966;SDS011;1493;51.496;7.210;2022-08-05T09:10:24;6.93;;;3.70;;
2966;SDS011;1493;51.496;7.210;2022-08-05T09:12:52;9.13;;;2.60;;
2966;SDS011;1493;51.496;7.210;2022-08-05T09:15:19;4.80;;;3.07;;
2966;SDS011;1493;51.496;7.210;2022-08-05T09:17:46;2.90;;;2.40;;
2966;SDS011;1493;51.496;7.210;2022-08-05T09:20:14;5.83;;;3.10;;
2966;SDS011;1493;51.496;7.210;2022-08-05T09:25:42;5.93;;;3.23;;
2966;SDS011;1493;51.496;7.210;2022-08-05T09:28:12;4.50;;;2.93;;
2966;SDS011;1493;51.496;7.210;2022-08-05T09:30:42;4.70;;;2.83;;
2966;SDS011;1493;51.496;7.210;2022-08-05T09:33:09;4.13;;;2.60;;
2966;SDS011;1493;51.496;7.210;2022-08-05T09:35:38;4.17;;;2.30;;
2966;SDS011;1493;51.496;7.210;2022-08-05T09:38:27;2.97;;;2.00;;
2966;SDS011;1493;51.496;7.210;2022-08-05T09:41:01;6.80;;;3.07;;
2966;SDS011;1493;51.496;7.210;2022-08-05T09:43:30;5.87;;;2.97;;
2966;SDS011;1493;51.496;7.210;2022-08-05T09:45:57;5.43;;;4.23;;
2966;SDS011;1493;51.496;7.210;2022-08-05T09:48:25;3.70;;;2.67;;
2966;SDS011;1493;51.496;7.210;2022-08-05T09:50:55;6.53;;;3.20;;
2966;SDS011;1493;51.496;7.210;2022-08-05T09:53:23;9.60;;;3.10;;
2966;SDS011;1493;51.496;7.210;2022-08-05T09:55:52;5.33;;;2.33;;
2966;SDS011;1493;51.496;7.210;2022-08-05T09:58:20;4.47;;;2.30;;
2966;SDS011;1493;51.496;7.210;2022-08-05T10:00:51;3.90;;;2.13;;
2966;SDS011;1493;51.496;7.210;2022-08-05T10:03:20;5.83;;;2.20;;
2966;SDS011;1493;51.496;7.210;2022-08-05T10:05:59;3.50;;;2.23;;
2966;SDS011;1493;51.496;7.210;2022-08-05T10:08:27;5.07;;;2.53;;
2966;SDS011;1493;51.496;7.210;2022-08-05T10:10:54;3.90;;;2.00;;
2966;SDS011;1493;51.496;7.210;2022-08-05T10:13:25;5.30;;;2.17;;
2966;SDS011;1493;51.496;7.210;2022-08-05T10:15:54;4.00;;;2.83;;
2966;SDS011;1493;51.496;7.210;2022-08-05T10:18:22;6.63;;;2.50;;
2966;SDS011;1493;51.496;7.210;2022-08-05T10:20:52;5.40;;;2.73;;
2966;SDS011;1493;51.496;7.210;2022-08-05T10:23:22;5.40;;;2.53;;
2966;SDS011;1493;51.496;7.210;2022-08-05T10:25:50;3.83;;;2.67;;
2966;SDS011;1493;51.496;7.210;2022-08-05T10:28:19;4.13;;;2.63;;
2966;SDS011;1493;51.496;7.210;2022-08-05T10:30:46;4.30;;;2.87;;
2966;SDS011;1493;51.496;7.210;2022-08-05T10:33:13;4.53;;;2.67;;
2966;SDS011;1493;51.496;7.210;2022-08-05T10:35:39;4.70;;;2.37;;
2966;SDS011;1493;51.496;7.210;2022-08-05T10:38:06;6.37;;;2.97;;
2966;SDS011;1493;51.496;7.210;2022-08-05T10:40:37;4.10;;;2.73;;
2966;SDS011;1493;51.496;7.210;2022-08-05T10:43:11;4.47;;;3.10;;
2966;SDS011;1493;51.496;7.210;2022-08-05T10:45:53;5.70;;;3.10;;
2966;SDS011;1493;51.496;7.210;2022-08-05T10:48:27;4.80;;;2.63;;
2966;SDS011;1493;51.496;7.210;2022-08-05T10:51:03;5.27;;;3.50;;
2966;SDS011;1493;51.496;7.210;2022-08-05T10:53:36;5.90;;;2.57;;
2966;SDS011;1493;51.496;7.210;2022-08-05T10:56:07;4.20;;;2.33;;
2966;SDS011;1493;51.496;7.210;2022-08-05T10:58:46;6.40;;;2.83;;
2966;SDS011;1493;51.496;7.210;2022-08-05T11:01:14;4.60;;;2.40;;
2966;SDS011;1493;51.496;7.210;2022-08-05T11:06:28;3.70;;;2.50;;
2966;SDS011;1493;51.496;7.210;2022-08-05T11:09:12;3.83;;;2.50;;
2966;SDS011;1493;51.496;7.210;2022-08-05T11:11:43;5.13;;;2.60;;
2966;SDS011;1493;51.496;7.210;2022-08-05T11:14:12;4.10;;;2.13;;
2966;SDS011;1493;51.496;7.210;2022-08-05T11:19:48;3.30;;;1.73;;
2966;SDS011;1493;51.496;7.210;2022-08-05T11:22:39;5.23;;;1.90;;
2966;SDS011;1493;51.496;7.210;2022-08-05T11:25:30;3.67;;;1.60;;
2966;SDS011;1493;51.496;7.210;2022-08-05T11:34:03;4.23;;;2.00;;
2966;SDS011;1493;51.496;7.210;2022-08-05T11:36:40;5.33;;;3.13;;
2966;SDS011;1493;51.496;7.210;2022-08-05T11:39:11;4.63;;;2.53;;
2966;SDS011;1493;51.496;7.210;2022-08-05T11:41:39;6.03;;;2.47;;
2966;SDS011;1493;51.496;7.210;2022-08-05T11:44:08;3.93;;;1.97;;
2966;SDS011;1493;51.496;7.210;2022-08-05T11:46:38;3.03;;;2.00;;
2966;SDS011;1493;51.496;7.210;2022-08-05T11:49:07;3.80;;;2.37;;
2966;SDS011;1493;51.496;7.210;2022-08-05T11:51:37;4.40;;;2.40;;
2966;SDS011;1493;51.496;7.210;2022-08-05T11:54:07;4.40;;;2.60;;
2966;SDS011;1493;51.496;7.210;2022-08-05T11:56:45;6.30;;;2.77;;
2966;SDS011;1493;51.496;7.210;2022-08-05T11:59:18;6.80;;;2.60;;
2966;SDS011;1493;51.496;7.210;2022-08-05T12:01:51;3.90;;;2.70;;
2966;SDS011;1493;51.496;7.210;2022-08-05T12:04:19;4.20;;;3.13;;
2966;SDS011;1493;51.496;7.210;2022-08-05T12:06:46;5.63;;;3.07;;
2966;SDS011;1493;51.496;7.210;2022-08-05T12:09:19;3.83;;;2.47;;
2966;SDS011;1493;51.496;7.210;2022-08-05T12:11:48;3.50;;;2.60;;
2966;SDS011;1493;51.496;7.210;2022-08-05T12:14:17;5.00;;;2.70;;
2966;SDS011;1493;51.496;7.210;2022-08-05T12:16:44;5.33;;;3.47;;
2966;SDS011;1493;51.496;7.210;2022-08-05T12:19:13;5.53;;;3.40;;
2966;SDS011;1493;51.496;7.210;2022-08-05T12:21:42;3.87;;;2.37;;
2966;SDS011;1493;51.496;7.210;2022-08-05T12:24:11;4.93;;;3.40;;
2966;SDS011;1493;51.496;7.210;2022-08-05T12:26:41;4.37;;;3.87;;
2966;SDS011;1493;51.496;7.210;2022-08-05T12:29:11;7.00;;;3.40;;
2966;SDS011;1493;51.496;7.210;2022-08-05T12:31:43;4.87;;;3.90;;
2966;SDS011;1493;51.496;7.210;2022-08-05T12:34:12;4.90;;;3.83;;
2966;SDS011;1493;51.496;7.210;2022-08-05T12:36:39;6.03;;;4.37;;
2966;SDS011;1493;51.496;7.210;2022-08-05T12:39:07;6.77;;;4.30;;
2966;SDS011;1493;51.496;7.210;2022-08-05T12:41:35;7.43;;;4.93;;
2966;SDS011;1493;51.496;7.210;2022-08-05T12:44:04;5.40;;;4.40;;
2966;SDS011;1493;51.496;7.210;2022-08-05T12:46:34;6.40;;;4.70;;
2966;SDS011;1493;51.496;7.210;2022-08-05T12:49:06;4.50;;;4.10;;
2966;SDS011;1493;51.496;7.210;2022-08-05T12:51:44;7.10;;;4.73;;
2966;SDS011;1493;51.496;7.210;2022-08-05T12:54:17;6.47;;;4.07;;
2966;SDS011;1493;51.496;7.210;2022-08-05T12:56:46;5.30;;;4.50;;
2966;SDS011;1493;51.496;7.210;2022-08-05T12:59:16;5.13;;;4.60;;
2966;SDS011;1493;51.496;7.210;2022-08-05T13:01:54;5.07;;;4.57;;
2966;SDS011;1493;51.496;7.210;2022-08-05T13:04:37;6.70;;;4.30;;
2966;SDS011;1493;51.496;7.210;2022-08-05T13:07:06;5.90;;;4.17;;
2966;SDS011;1493;51.496;7.210;2022-08-05T13:09:36;4.70;;;4.30;;
2966;SDS011;1493;51.496;7.210;2022-08-05T13:12:05;5.13;;;4.10;;
2966;SDS011;1493;51.496;7.210;2022-08-05T13:14:34;5.23;;;4.13;;
2966;SDS011;1493;51.496;7.210;2022-08-05T13:17:05;7.87;;;4.50;;
2966;SDS011;1493;51.496;7.210;2022-08-05T13:19:35;4.93;;;3.87;;
2966;SDS011;1493;51.496;7.210;2022-08-05T13:22:03;6.27;;;4.00;;
2966;SDS011;1493;51.496;7.210;2022-08-05T13:24:34;5.30;;;3.73;;
2966;SDS011;1493;51.496;7.210;2022-08-05T13:27:24;7.87;;;3.37;;
2966;SDS011;1493;51.496;7.210;2022-08-05T13:29:54;4.80;;;2.33;;
2966;SDS011;1493;51.496;7.210;2022-08-05T13:32:31;3.87;;;2.37;;
2966;SDS011;1493;51.496;7.210;2022-08-05T13:35:06;5.63;;;2.30;;
2966;SDS011;1493;51.496;7.210;2022-08-05T13:37:34;7.17;;;2.80;;
2966;SDS011;1493;51.496;7.210;2022-08-05T13:40:01;4.97;;;1.93;;
2966;SDS011;1493;51.496;7.210;2022-08-05T13:42:28;4.17;;;2.30;;
2966;SDS011;1493;51.496;7.210;2022-08-05T13:44:55;4.10;;;1.87;;
2966;SDS011;1493;51.496;7.210;2022-08-05T13:51:06;4.73;;;1.50;;
2966;SDS011;1493;51.496;7.210;2022-08-05T13:53:41;6.20;;;1.80;;
2966;SDS011;1493;51.496;7.210;2022-08-05T13:56:08;3.80;;;1.90;;
2966;SDS011;1493;51.496;7.210;2022-08-05T13:58:35;3.90;;;1.60;;
2966;SDS011;1493;51.496;7.210;2022-08-05T14:01:02;5.43;;;2.70;;
2966;SDS011;1493;51.496;7.210;2022-08-05T14:03:29;3.50;;;1.93;;
2966;SDS011;1493;51.496;7.210;2022-08-05T14:05:56;5.63;;;1.70;;
2966;SDS011;1493;51.496;7.210;2022-08-05T14:08:24;4.47;;;1.30;;
2966;SDS011;1493;51.496;7.210;2022-08-05T14:10:51;3.80;;;1.30;;
2966;SDS011;1493;51.496;7.210;2022-08-05T14:13:18;2.93;;;1.47;;
2966;SDS011;1493;51.496;7.210;2022-08-05T14:15:45;3.77;;;1.60;;
2966;SDS011;1493;51.496;7.210;2022-08-05T14:18:12;2.90;;;1.50;;
2966;SDS011;1493;51.496;7.210;2022-08-05T14:20:42;6.00;;;1.60;;
2966;SDS011;1493;51.496;7.210;2022-08-05T14:23:12;4.63;;;1.70;;
2966;SDS011;1493;51.496;7.210;2022-08-05T14:25:41;3.73;;;1.33;;
2966;SDS011;1493;51.496;7.210;2022-08-05T14:28:08;5.33;;;1.50;;
2966;SDS011;1493;51.496;7.210;2022-08-05T14:30:35;3.13;;;1.27;;
2966;SDS011;1493;51.496;7.210;2022-08-05T14:33:02;4.17;;;1.80;;
2966;SDS011;1493;51.496;7.210;2022-08-05T14:35:29;3.40;;;1.50;;
2966;SDS011;1493;51.496;7.210;2022-08-05T14:37:56;3.03;;;1.33;;
2966;SDS011;1493;51.496;7.210;2022-08-05T14:40:23;2.90;;;1.20;;
2966;SDS011;1493;51.496;7.210;2022-08-05T14:42:52;2.70;;;1.20;;
2966;SDS011;1493;51.496;7.210;2022-08-05T14:45:26;3.10;;;1.20;;
2966;SDS011;1493;51.496;7.210;2022-08-05T14:47:55;5.00;;;1.63;;
2966;SDS011;1493;51.496;7.210;2022-08-05T14:50:22;7.30;;;2.13;;
2966;SDS011;1493;51.496;7.210;2022-08-05T14:52:51;3.53;;;1.13;;
2966;SDS011;1493;51.496;7.210;2022-08-05T14:55:18;4.07;;;1.57;;
2966;SDS011;1493;51.496;7.210;2022-08-05T14:57:45;3.20;;;1.30;;
2966;SDS011;1493;51.496;7.210;2022-08-05T15:00:13;2.40;;;1.20;;
2966;SDS011;1493;51.496;7.210;2022-08-05T15:02:41;2.27;;;0.90;;
2966;SDS011;1493;51.496;7.210;2022-08-05T15:05:08;2.40;;;1.30;;
2966;SDS011;1493;51.496;7.210;2022-08-05T15:07:35;2.93;;;0.90;;
2966;SDS011;1493;51.496;7.210;2022-08-05T15:10:02;3.23;;;1.13;;
2966;SDS011;1493;51.496;7.210;2022-08-05T15:12:29;2.87;;;0.93;;
2966;SDS011;1493;51.496;7.210;2022-08-05T15:14:56;2.90;;;1.00;;
2966;SDS011;1493;51.496;7.210;2022-08-05T15:17:25;3.00;;;1.00;;
2966;SDS011;1493;51.496;7.210;2022-08-05T15:19:52;2.63;;;0.90;;
2966;SDS011;1493;51.496;7.210;2022-08-05T15:22:19;2.00;;;0.90;;
2966;SDS011;1493;51.496;7.210;2022-08-05T15:24:46;2.90;;;1.00;;
2966;SDS011;1493;51.496;7.210;2022-08-05T15:27:13;3.07;;;0.90;;
2966;SDS011;1493;51.496;7.210;2022-08-05T15:29:40;2.30;;;0.73;;
2966;SDS011;1493;51.496;7.210;2022-08-05T15:32:07;6.83;;;1.40;;
2966;SDS011;1493;51.496;7.210;2022-08-05T15:34:36;5.37;;;0.80;;
2966;SDS011;1493;51.496;7.210;2022-08-05T15:37:03;2.73;;;0.90;;
2966;SDS011;1493;51.496;7.210;2022-08-05T15:39:30;2.37;;;0.87;;